Time;durP1;ratioP1;P1;durP2;ratioP2;P2;SDS_P1;SDS_P2;PMS_P1;PMS_P2;Temp;Humidity;BMP_temperature;BMP_pressure;BME280_temperature;BME280_humidity;BME280_pressure;Samples;Min_cycle;Max_cycle;Signal;HPM_P1;HPM_P2
2022/03/19 00:00:10;;;;;;;24.53;13.00;;;;;;;-1.83;100.00;-23763.34;5089693;28;20648;-75
2022/03/19 00:02:36;;;;;;;28.10;13.83;;;;;;;-1.99;100.00;-23758.75;5057909;28;20557;-73
2022/03/19 00:05:01;;;;;;;27.97;13.43;;;;;;;-1.77;100.00;-23764.78;5075007;28;20174;-73
2022/03/19 00:07:27;;;;;;;32.40;13.23;;;;;;;-1.45;100.00;-23773.97;5066623;28;20716;-73
2022/03/19 00:09:52;;;;;;;24.33;12.83;;;;;;;-1.40;100.00;-23775.41;5072274;28;20283;-74
2022/03/19 00:12:18;;;;;;;25.67;12.70;;;;;;;-1.80;100.00;-23764.22;5072166;28;20248;-74
2022/03/19 00:14:44;;;;;;;24.20;12.97;;;;;;;-1.58;100.00;-23770.25;5072723;28;20166;-73
2022/03/19 00:17:10;;;;;;;24.03;13.47;;;;;;;-1.83;100.00;-23763.34;5072585;28;20174;-74
2022/03/19 00:19:39;;;;;;;23.13;13.00;;;;;;;-1.89;100.00;-23761.63;5072529;28;20668;-74
2022/03/19 00:22:06;;;;;;;27.00;13.63;;;;;;;-1.69;100.00;-23767.06;5072018;28;20181;-73
2022/03/19 00:24:32;;;;;;;25.90;13.03;;;;;;;-1.33;100.00;-23777.41;5072321;28;20217;-74
2022/03/19 00:26:58;;;;;;;22.37;13.00;;;;;;;-1.64;100.00;-23768.50;5072547;28;20173;-73
2022/03/19 00:29:23;;;;;;;24.80;13.80;;;;;;;-1.42;100.00;-23774.97;5072524;28;20285;-74
2022/03/19 00:31:48;;;;;;;26.77;13.13;;;;;;;-1.47;100.00;-23773.53;5072109;28;20177;-73
2022/03/19 00:34:14;;;;;;;28.03;14.07;;;;;;;-1.33;100.00;-23777.41;5054306;28;20616;-73
2022/03/19 00:36:39;;;;;;;33.20;13.40;;;;;;;-1.41;100.00;-23775.13;5072588;28;20253;-73
2022/03/19 00:39:05;;;;;;;22.33;12.00;;;;;;;-1.57;100.00;-23770.53;5072231;28;20155;-74
2022/03/19 00:41:31;;;;;;;22.97;12.20;;;;;;;-1.67;100.00;-23767.66;5072480;28;20642;-74
2022/03/19 00:43:56;;;;;;;25.27;12.90;;;;;;;-1.28;100.00;-23778.84;5072325;28;20166;-74
2022/03/19 00:46:22;;;;;;;25.73;12.27;;;;;;;-1.37;100.00;-23776.25;5054054;28;20167;-74
2022/03/19 00:48:48;;;;;;;25.90;13.20;;;;;;;-1.32;100.00;-23777.69;5071697;28;20167;-74
2022/03/19 00:51:13;;;;;;;21.00;12.80;;;;;;;-1.68;100.00;-23767.50;5071906;28;20348;-74
2022/03/19 00:53:39;;;;;;;22.43;12.90;;;;;;;-1.60;100.00;-23769.81;5071661;28;20182;-75
2022/03/19 00:56:04;;;;;;;29.07;14.33;;;;;;;-1.37;100.00;-23776.41;5071596;28;20248;-73
2022/03/19 00:58:30;;;;;;;27.93;13.87;;;;;;;-1.36;100.00;-23776.56;5083156;28;20260;-73
2022/03/19 01:00:55;;;;;;;24.73;13.17;;;;;;;-1.34;100.00;-23777.13;5077559;28;20173;-73
2022/03/19 01:03:21;;;;;;;25.80;12.57;;;;;;;-1.84;100.00;-23762.91;5088514;28;20559;-73
2022/03/19 01:05:46;;;;;;;24.67;12.03;;;;;;;-1.72;100.00;-23766.22;5090112;28;20165;-74
2022/03/19 01:08:12;;;;;;;24.60;12.50;;;;;;;-1.39;100.00;-23775.69;5053641;28;20179;-74
2022/03/19 01:10:38;;;;;;;22.63;11.57;;;;;;;-1.58;100.00;-23770.25;5071840;28;20303;-74
2022/03/19 01:13:06;;;;;;;23.63;12.10;;;;;;;-1.48;100.00;-23773.09;5071457;28;20196;-74
2022/03/19 01:15:31;;;;;;;21.17;11.83;;;;;;;-1.93;100.00;-23760.47;5071928;28;20626;-74
2022/03/19 01:17:57;;;;;;;26.07;12.53;;;;;;;-2.02;100.00;-23757.75;5071698;28;20183;-74
2022/03/19 01:20:24;;;;;;;24.30;12.23;;;;;;;-2.10;100.00;-23755.59;5071753;28;20255;-74
2022/03/19 01:22:50;;;;;;;21.97;12.43;;;;;;;-2.43;100.00;-23746.13;5071235;28;20216;-74
2022/03/19 01:25:17;;;;;;;24.10;13.03;;;;;;;-1.96;100.00;-23759.47;5053589;28;20204;-74
2022/03/19 01:27:45;;;;;;;21.93;12.37;;;;;;;-1.97;100.00;-23759.31;5071422;28;20185;-74
2022/03/19 01:30:11;;;;;;;26.40;13.17;;;;;;;-2.12;100.00;-23754.88;5071620;28;20205;-74
2022/03/19 01:32:37;;;;;;;26.40;13.43;;;;;;;-1.80;100.00;-23764.22;5071274;28;20197;-74
2022/03/19 01:35:03;;;;;;;24.17;12.90;;;;;;;-2.28;100.00;-23750.56;5070982;28;20332;-74
2022/03/19 01:37:29;;;;;;;24.33;13.47;;;;;;;-1.94;100.00;-23760.19;5071337;28;20688;-74
2022/03/19 01:39:55;;;;;;;22.90;13.10;;;;;;;-2.29;100.00;-23750.13;5071702;28;20178;-74
2022/03/19 01:42:26;;;;;;;22.33;12.57;;;;;;;-1.85;100.00;-23762.78;5052990;28;20196;-72
2022/03/19 01:44:53;;;;;;;23.07;13.13;;;;;;;-2.39;100.00;-23747.25;5093765;28;20546;-74
2022/03/19 01:47:19;;;;;;;25.77;13.23;;;;;;;-2.17;100.00;-23753.44;5111632;28;20181;-73
2022/03/19 01:49:45;;;;;;;24.20;12.67;;;;;;;-1.79;100.00;-23764.50;5111683;28;20197;-73
2022/03/19 01:52:11;;;;;;;24.47;13.20;;;;;;;-1.99;100.00;-23758.75;5111684;28;20255;-73
2022/03/19 01:54:39;;;;;;;25.60;13.10;;;;;;;-1.72;100.00;-23766.38;5094072;28;20268;-73
2022/03/19 01:57:05;;;;;;;25.40;13.63;;;;;;;-1.69;100.00;-23767.06;5111685;28;20211;-73
2022/03/19 01:59:36;;;;;;;28.30;14.47;;;;;;;-1.91;100.00;-23761.06;5111806;28;20180;-74
2022/03/19 02:02:07;;;;;;;29.20;13.77;;;;;;;-1.49;100.00;-23772.97;5111711;28;20161;-74
2022/03/19 02:04:37;;;;;;;25.57;14.57;;;;;;;-1.31;100.00;-23778.00;5111967;28;20169;-74
2022/03/19 02:07:03;;;;;;;30.33;16.33;;;;;;;-1.53;100.00;-23771.81;5093877;28;20168;-74
2022/03/19 02:09:29;;;;;;;29.77;16.40;;;;;;;-1.26;100.00;-23779.28;5114860;28;20270;-74
2022/03/19 02:11:55;;;;;;;28.07;15.37;;;;;;;-1.59;100.00;-23769.94;5115762;28;20259;-74
2022/03/19 02:14:21;;;;;;;30.17;14.93;;;;;;;-1.22;100.00;-23780.56;5097015;28;20322;-73
2022/03/19 02:16:47;;;;;;;26.10;13.47;;;;;;;-1.43;100.00;-23774.69;5115799;28;20189;-73
2022/03/19 02:19:13;;;;;;;25.17;14.20;;;;;;;-1.96;100.00;-23759.63;5115745;28;20165;-74
2022/03/19 02:21:43;;;;;;;25.13;14.43;;;;;;;-1.92;100.00;-23760.75;5115798;28;20176;-73
2022/03/19 02:26:55;;;;;;;25.20;12.87;;;;;;;-1.57;100.00;-23770.53;5115529;28;20175;-74
2022/03/19 02:29:20;;;;;;;27.47;14.57;;;;;;;-1.61;100.00;-23769.53;5115145;28;20737;-74
2022/03/19 02:31:48;;;;;;;26.80;14.77;;;;;;;-2.04;100.00;-23757.19;5097250;28;20256;-74
2022/03/19 02:34:13;;;;;;;27.47;15.10;;;;;;;-1.47;100.00;-23773.41;5115388;28;20164;-74
2022/03/19 02:36:41;;;;;;;26.57;14.97;;;;;;;-1.50;100.00;-23772.69;5104868;28;20620;-74
2022/03/19 02:39:39;;;;;;;30.13;16.60;;;;;;;-1.35;100.00;-23776.97;5093995;28;20550;-73
2022/03/19 02:42:07;;;;;;;33.93;17.27;;;;;;;-1.25;100.00;-23779.72;5071989;28;20185;-73
2022/03/19 02:44:33;;;;;;;32.00;15.50;;;;;;;-1.89;100.00;-23761.63;5094172;28;20161;-73
2022/03/19 02:47:04;;;;;;;29.17;14.97;;;;;;;-1.69;100.00;-23767.22;5075896;28;20182;-73
2022/03/19 02:49:30;;;;;;;27.70;14.93;;;;;;;-1.67;100.00;-23767.66;5094332;28;20192;-74
2022/03/19 02:51:56;;;;;;;32.03;16.13;;;;;;;-1.94;100.00;-23760.19;5094147;28;20253;-74
2022/03/19 02:54:23;;;;;;;31.37;16.33;;;;;;;-2.11;100.00;-23755.31;5092700;28;20703;-74
2022/03/19 02:56:51;;;;;;;34.03;17.40;;;;;;;-1.73;100.00;-23766.06;5086065;28;20216;-74
2022/03/19 02:59:27;;;;;;;38.53;19.00;;;;;;;-1.65;100.00;-23768.22;5084063;28;20177;-74
2022/03/19 03:01:57;;;;;;;36.83;19.67;;;;;;;-1.71;100.00;-23766.50;5093772;28;20668;-74
2022/03/19 03:04:23;;;;;;;41.67;20.23;;;;;;;-2.16;100.00;-23753.88;5075856;28;20197;-74
2022/03/19 03:06:51;;;;;;;40.67;20.73;;;;;;;-1.92;100.00;-23760.75;5073496;28;20529;-73
2022/03/19 03:09:22;;;;;;;42.77;21.03;;;;;;;-1.82;100.00;-23763.63;5072396;28;20228;-74
2022/03/19 03:11:47;;;;;;;39.30;20.97;;;;;;;-1.79;100.00;-23764.34;5056133;28;20645;-74
2022/03/19 03:14:18;;;;;;;38.57;20.17;;;;;;;-1.63;100.00;-23768.81;5073713;28;20202;-73
2022/03/19 03:16:44;;;;;;;40.90;20.00;;;;;;;-1.97;100.00;-23759.31;5055782;28;20181;-73
2022/03/19 03:19:14;;;;;;;40.73;20.13;;;;;;;-1.50;100.00;-23772.53;5055056;28;20177;-74
2022/03/19 03:21:39;;;;;;;36.63;19.53;;;;;;;-1.91;100.00;-23760.91;5056287;28;20174;-73
2022/03/19 03:24:06;;;;;;;38.03;20.63;;;;;;;-2.27;100.00;-23750.84;5073896;28;20189;-74
2022/03/19 03:26:31;;;;;;;40.27;20.23;;;;;;;-1.94;100.00;-23760.06;5074010;28;20166;-74
2022/03/19 03:28:58;;;;;;;36.77;19.43;;;;;;;-2.07;100.00;-23756.47;5073875;28;20166;-74
2022/03/19 03:31:25;;;;;;;39.97;19.97;;;;;;;-2.00;100.00;-23758.47;5055995;28;20271;-74
2022/03/19 03:33:50;;;;;;;42.27;20.50;;;;;;;-2.06;100.00;-23756.75;5073352;28;20178;-74
2022/03/19 03:36:16;;;;;;;40.57;20.70;;;;;;;-2.35;100.00;-23748.41;5073633;28;20196;-74
2022/03/19 03:38:41;;;;;;;37.90;18.73;;;;;;;-1.93;100.00;-23760.47;5055799;28;20637;-74
2022/03/19 03:41:07;;;;;;;36.90;19.47;;;;;;;-1.79;100.00;-23764.50;5055712;28;20265;-74
2022/03/19 03:43:32;;;;;;;34.70;19.53;;;;;;;-1.83;100.00;-23763.19;5055413;28;20718;-74
2022/03/19 03:45:58;;;;;;;37.77;18.30;;;;;;;-1.97;100.00;-23759.31;5055301;28;20182;-73
2022/03/19 03:48:24;;;;;;;37.37;18.90;;;;;;;-1.80;100.00;-23764.06;5072881;28;20174;-74
2022/03/19 03:50:52;;;;;;;46.10;19.67;;;;;;;-1.66;100.00;-23767.94;5072946;28;20206;-73
2022/03/19 03:53:18;;;;;;;38.97;19.87;;;;;;;-1.94;100.00;-23760.19;5073310;28;20192;-74
2022/03/19 03:55:44;;;;;;;39.97;20.47;;;;;;;-1.99;100.00;-23758.63;5073114;28;20242;-74
2022/03/19 03:58:11;;;;;;;40.67;21.00;;;;;;;-1.54;100.00;-23771.38;5072895;28;20189;-73
2022/03/19 04:00:37;;;;;;;36.77;20.00;;;;;;;-1.21;100.00;-23780.72;5073070;28;20178;-73
2022/03/19 04:03:04;;;;;;;40.07;20.43;;;;;;;-1.72;100.00;-23766.38;5072940;28;20169;-74
2022/03/19 04:05:30;;;;;;;41.33;20.67;;;;;;;-1.71;100.00;-23766.66;5072631;28;20179;-73
2022/03/19 04:07:56;;;;;;;39.10;20.43;;;;;;;-1.57;100.00;-23770.53;5089797;28;20193;-74
2022/03/19 04:10:21;;;;;;;38.37;20.60;;;;;;;-1.72;100.00;-23766.38;5074989;28;20331;-74
2022/03/19 04:12:47;;;;;;;41.30;20.83;;;;;;;-1.09;100.00;-23784.28;5092884;28;20588;-74
2022/03/19 04:15:12;;;;;;;40.37;21.23;;;;;;;-1.34;100.00;-23777.25;5084905;28;20710;-74
2022/03/19 04:17:38;;;;;;;38.67;21.50;;;;;;;-1.53;100.00;-23771.69;5072218;28;20196;-74
2022/03/19 04:20:05;;;;;;;38.80;20.00;;;;;;;-1.16;100.00;-23782.16;5054223;28;20185;-73
2022/03/19 04:22:43;;;;;;;41.73;20.73;;;;;;;-1.17;100.00;-23782.00;5072749;28;20188;-73
2022/03/19 04:25:14;;;;;;;38.20;20.30;;;;;;;-1.52;100.00;-23772.09;5072327;28;20170;-74
2022/03/19 04:27:41;;;;;;;38.23;19.53;;;;;;;-1.15;100.00;-23782.44;5072696;28;20166;-73
2022/03/19 04:30:08;;;;;;;38.93;20.00;;;;;;;-1.43;100.00;-23774.53;5071711;28;20190;-74
2022/03/19 04:32:45;;;;;;;38.27;20.47;;;;;;;-1.28;100.00;-23778.69;5072442;28;20257;-74
2022/03/19 04:38:00;;;;;;;36.27;20.53;;;;;;;-1.25;100.00;-23779.72;5072048;28;20174;-74
2022/03/19 04:40:25;;;;;;;36.87;20.27;;;;;;;-0.83;100.00;-23791.47;5071961;28;20184;-74
2022/03/19 04:42:51;;;;;;;39.63;20.67;;;;;;;-0.92;100.00;-23789.03;5071960;28;20194;-74
2022/03/19 04:45:17;;;;;;;39.87;20.47;;;;;;;-1.27;100.00;-23779.13;5054170;28;20179;-74
2022/03/19 04:47:42;;;;;;;38.90;20.47;;;;;;;-0.87;100.00;-23790.47;5054381;28;20178;-74
2022/03/19 04:50:08;;;;;;;40.00;21.70;;;;;;;-0.82;100.00;-23791.75;5071934;28;20193;-74
2022/03/19 04:52:34;;;;;;;43.00;21.57;;;;;;;-1.17;100.00;-23781.84;5071688;28;20628;-74
2022/03/19 04:55:01;;;;;;;36.63;20.00;;;;;;;-0.60;100.00;-23798.06;5053889;28;20174;-74
2022/03/19 04:57:29;;;;;;;39.67;20.53;;;;;;;-1.06;100.00;-23785.00;5071744;28;20564;-74
2022/03/19 04:59:56;;;;;;;33.97;19.20;;;;;;;-1.02;100.00;-23786.16;5054128;28;20239;-74
2022/03/19 05:02:24;;;;;;;36.73;19.70;;;;;;;-1.47;100.00;-23773.41;5071912;28;20178;-73
2022/03/19 05:04:52;;;;;;;35.17;19.03;;;;;;;-0.79;100.00;-23792.63;5071995;28;20178;-74
2022/03/19 05:07:19;;;;;;;35.77;19.83;;;;;;;-1.18;100.00;-23781.56;5071603;28;20253;-74
2022/03/19 05:12:31;;;;;;;36.20;19.83;;;;;;;-0.86;100.00;-23790.59;5071912;28;20236;-74
2022/03/19 05:14:56;;;;;;;39.77;21.00;;;;;;;-0.98;100.00;-23787.31;5072194;28;20182;-74
2022/03/19 05:17:21;;;;;;;37.83;20.03;;;;;;;-0.83;100.00;-23791.59;5071356;28;20170;-73
2022/03/19 05:19:47;;;;;;;38.60;19.70;;;;;;;-0.76;100.00;-23793.63;5071718;28;20575;-73
2022/03/19 05:22:12;;;;;;;33.73;20.00;;;;;;;-1.05;100.00;-23785.44;5071439;28;20770;-74
2022/03/19 05:24:38;;;;;;;39.03;19.97;;;;;;;-1.01;100.00;-23786.59;5071575;28;20183;-73
2022/03/19 05:27:03;;;;;;;41.83;21.77;;;;;;;-0.40;100.00;-23803.78;5071792;28;20258;-74
2022/03/19 05:29:31;;;;;;;40.47;21.10;;;;;;;-0.76;100.00;-23793.47;5053470;28;20633;-73
2022/03/19 05:31:56;;;;;;;37.73;21.00;;;;;;;-1.07;100.00;-23784.72;5072005;28;20160;-73
2022/03/19 05:34:31;;;;;;;38.47;21.10;;;;;;;-0.23;100.00;-23808.66;5071480;28;20178;-74
2022/03/19 05:37:01;;;;;;;35.37;20.50;;;;;;;-0.38;100.00;-23804.38;5071007;28;20666;-73
2022/03/19 05:39:27;;;;;;;39.93;21.97;;;;;;;-0.35;100.00;-23805.22;5071323;28;20179;-74
2022/03/19 05:41:54;;;;;;;41.33;22.70;;;;;;;-0.28;100.00;-23807.09;5072038;28;20249;-74
2022/03/19 05:44:20;;;;;;;38.30;21.60;;;;;;;0.09;100.00;-23817.69;5075726;28;20159;-73
2022/03/19 05:46:45;;;;;;;38.73;21.03;;;;;;;-0.11;100.00;-23812.09;5057520;28;20192;-74
2022/03/19 05:49:11;;;;;;;41.20;22.07;;;;;;;0.59;100.00;-23831.84;5075316;28;20167;-74
2022/03/19 05:51:36;;;;;;;39.60;21.43;;;;;;;0.73;100.00;-23835.72;5075130;28;20641;-74
2022/03/19 05:54:02;;;;;;;35.93;20.70;;;;;;;0.91;100.00;-23840.72;5075482;28;20184;-74
2022/03/19 05:56:29;;;;;;;40.00;19.53;;;;;;;0.71;100.00;-23835.28;5091928;28;20177;-75
2022/03/19 05:58:55;;;;;;;42.30;23.30;;;;;;;0.58;100.00;-23831.56;5080908;28;20662;-76
2022/03/19 06:01:26;;;;;;;45.23;24.27;;;;;;;0.87;100.00;-23839.88;5095308;28;20167;-75
2022/03/19 06:04:00;;;;;;;45.67;24.07;;;;;;;0.97;100.00;-23842.59;5094382;28;20174;-75
2022/03/19 06:06:26;;;;;;;44.77;23.03;;;;;;;1.02;100.00;-23844.00;5090689;28;20180;-74
2022/03/19 06:08:52;;;;;;;38.97;22.27;;;;;;;1.03;100.00;-23844.16;5066609;28;20211;-74
2022/03/19 06:11:18;;;;;;;41.17;21.20;;;;;;;1.16;100.00;-23847.88;5066269;28;20702;-75
2022/03/19 06:13:43;;;;;;;39.53;22.23;;;;;;;0.63;100.00;-23832.84;5056522;28;20173;-76
2022/03/19 06:16:09;;;;;;;35.27;21.17;;;;;;;1.29;100.00;-23851.59;5056649;28;20207;-76
2022/03/19 06:18:35;;;;;;;34.67;20.33;;;;;;;1.46;99.96;-23856.47;5056326;28;20166;-76
2022/03/19 06:21:00;;;;;;;34.30;20.03;;;;;;;1.48;98.27;-23857.03;5056344;28;20182;-76
2022/03/19 06:23:26;;;;;;;38.10;20.70;;;;;;;1.49;96.26;-23857.31;5074334;28;20252;-77
2022/03/19 06:25:52;;;;;;;33.90;19.60;;;;;;;1.07;95.27;-23845.44;5056326;28;20186;-76
2022/03/19 06:28:18;;;;;;;31.87;19.83;;;;;;;1.73;94.28;-23864.03;5073953;28;20231;-74
2022/03/19 06:30:44;;;;;;;33.83;19.63;;;;;;;1.36;93.47;-23853.44;5073696;28;20198;-74
2022/03/19 06:33:12;;;;;;;31.03;18.97;;;;;;;2.18;90.11;-23876.75;5073988;28;20265;-75
2022/03/19 06:38:25;;;;;;;32.63;19.80;;;;;;;2.03;93.37;-23872.47;5073845;28;20181;-75
2022/03/19 06:40:51;;;;;;;34.93;20.13;;;;;;;1.83;92.95;-23866.75;5080597;28;20170;-73
2022/03/19 06:43:16;;;;;;;31.40;18.53;;;;;;;1.93;93.00;-23869.59;5075733;28;20188;-75
2022/03/19 06:45:42;;;;;;;34.80;18.70;;;;;;;2.48;90.79;-23885.31;5093660;28;20585;-74
2022/03/19 06:48:07;;;;;;;33.00;20.07;;;;;;;2.44;88.97;-23884.03;5093966;28;20627;-74
2022/03/19 06:50:33;;;;;;;36.70;20.27;;;;;;;2.35;88.51;-23881.59;5093920;28;20201;-74
2022/03/19 06:52:58;;;;;;;35.30;19.67;;;;;;;2.49;87.37;-23885.44;5094015;28;20259;-75
2022/03/19 06:55:24;;;;;;;36.07;19.67;;;;;;;2.58;85.71;-23888.03;5093283;28;20173;-75
2022/03/19 06:57:49;;;;;;;36.47;21.37;;;;;;;2.67;86.04;-23890.72;5093942;28;20178;-76
2022/03/19 07:00:15;;;;;;;34.83;19.50;;;;;;;3.00;84.51;-23899.88;5093466;28;20179;-75
2022/03/19 07:02:54;;;;;;;33.27;20.43;;;;;;;3.23;82.43;-23906.44;5076188;28;20546;-75
2022/03/19 07:05:20;;;;;;;35.40;20.03;;;;;;;3.71;80.98;-23919.97;5094075;28;20191;-76
2022/03/19 07:07:46;;;;;;;34.17;19.30;;;;;;;3.90;77.36;-23925.22;5093937;28;20678;-75
2022/03/19 07:10:13;;;;;;;29.07;18.73;;;;;;;3.77;76.96;-23921.53;5093999;28;20225;-75
2022/03/19 07:12:43;;;;;;;30.77;19.70;;;;;;;4.37;75.37;-23938.63;5093455;28;20177;-76
2022/03/19 07:15:12;;;;;;;34.17;19.47;;;;;;;4.59;74.09;-23944.75;5075613;28;20205;-77
2022/03/19 07:17:38;;;;;;;32.80;19.13;;;;;;;4.46;73.00;-23941.03;5093582;28;20158;-75
2022/03/19 07:20:04;;;;;;;29.77;18.10;;;;;;;5.18;72.97;-23961.38;5093297;28;20196;-75
2022/03/19 07:22:45;;;;;;;34.40;18.00;;;;;;;4.97;72.12;-23955.28;5093497;28;20604;-76
2022/03/19 07:25:11;;;;;;;35.50;18.63;;;;;;;4.79;71.09;-23950.28;5093305;28;20222;-75
2022/03/19 07:27:36;;;;;;;32.53;17.20;;;;;;;5.07;70.11;-23958.25;5075076;28;20182;-76
2022/03/19 07:30:02;;;;;;;30.70;16.87;;;;;;;5.16;69.76;-23960.81;5093193;28;20580;-75
2022/03/19 07:32:28;;;;;;;27.63;15.33;;;;;;;5.00;68.27;-23956.25;5075178;28;20169;-75
2022/03/19 07:34:54;;;;;;;27.50;15.63;;;;;;;5.23;67.23;-23962.66;5093167;28;20169;-76
2022/03/19 07:37:19;;;;;;;27.63;16.70;;;;;;;5.41;67.32;-23967.78;5093494;28;20172;-75
2022/03/19 07:39:45;;;;;;;29.17;16.70;;;;;;;5.60;66.75;-23973.03;5093252;28;20185;-75
2022/03/19 07:42:10;;;;;;;26.27;15.60;;;;;;;5.79;64.70;-23978.44;5073405;28;20185;-74
2022/03/19 07:44:36;;;;;;;21.77;14.63;;;;;;;5.82;61.33;-23979.16;5074146;28;20195;-77
2022/03/19 07:47:01;;;;;;;22.60;13.80;;;;;;;6.28;58.81;-23992.22;5058609;28;20201;-75
2022/03/19 07:49:27;;;;;;;23.23;13.80;;;;;;;6.13;57.40;-23988.13;5089988;28;20177;-75
2022/03/19 07:51:55;;;;;;;24.00;13.47;;;;;;;6.26;55.89;-23991.53;5077657;28;20181;-75
2022/03/19 07:54:27;;;;;;;20.80;13.07;;;;;;;6.78;53.75;-24006.28;5091945;28;20178;-75
2022/03/19 07:56:53;;;;;;;23.47;12.83;;;;;;;6.79;50.91;-24006.44;5069807;28;20205;-75
2022/03/19 07:59:19;;;;;;;20.70;12.60;;;;;;;6.54;50.21;-23999.47;5089247;28;20647;-75
2022/03/19 08:01:44;;;;;;;18.93;12.60;;;;;;;6.78;48.54;-24006.13;5076414;28;20177;-74
2022/03/19 08:04:10;;;;;;;19.67;12.80;;;;;;;7.17;48.11;-24017.06;5091427;28;20186;-74
2022/03/19 08:06:36;;;;;;;19.90;11.90;;;;;;;7.36;46.26;-24022.44;5081250;28;20166;-75
2022/03/19 08:09:04;;;;;;;20.87;11.47;;;;;;;6.60;47.52;-24001.19;5087816;28;20181;-74
2022/03/19 08:11:31;;;;;;;19.07;12.00;;;;;;;6.14;49.48;-23988.41;5056319;28;20661;-75
2022/03/19 08:13:56;;;;;;;18.23;11.97;;;;;;;5.90;49.33;-23981.56;5091723;28;20181;-75
2022/03/19 08:16:24;;;;;;;16.67;11.27;;;;;;;5.40;47.49;-23967.50;5091833;28;20197;-75
2022/03/19 08:18:50;;;;;;;15.60;10.10;;;;;;;5.52;47.55;-23970.78;5086349;28;20190;-75
2022/03/19 08:21:15;;;;;;;15.97;10.03;;;;;;;4.58;49.68;-23944.31;5074610;28;20185;-75
2022/03/19 08:23:40;;;;;;;16.43;10.63;;;;;;;5.10;48.31;-23959.13;5072746;28;20720;-75
2022/03/19 08:26:06;;;;;;;17.37;10.77;;;;;;;5.71;47.41;-23976.16;5073915;28;20526;-74
2022/03/19 08:28:31;;;;;;;19.10;11.37;;;;;;;5.69;47.72;-23975.59;5084994;28;20216;-74
2022/03/19 08:30:58;;;;;;;15.33;10.63;;;;;;;6.29;46.60;-23992.38;5058843;28;20237;-74
2022/03/19 08:33:25;;;;;;;20.40;11.30;;;;;;;6.75;45.42;-24005.28;5088774;28;20181;-74
2022/03/19 08:35:50;;;;;;;15.80;10.50;;;;;;;6.87;44.58;-24008.84;5091783;28;20181;-75
2022/03/19 08:41:00;;;;;;;15.37;10.10;;;;;;;6.26;44.87;-23991.66;5076258;28;20259;-75
2022/03/19 08:43:25;;;;;;;15.87;10.27;;;;;;;6.44;43.99;-23996.63;5070755;28;20185;-75
2022/03/19 08:45:51;;;;;;;18.10;11.50;;;;;;;6.00;44.04;-23984.28;4624950;28;20891;-75
2022/03/19 08:48:18;;;;;;;19.37;10.83;;;;;;;6.29;45.00;-23992.38;4542157;28;21552;-75
2022/03/19 08:50:45;;;;;;;15.57;11.13;;;;;;;6.84;43.84;-24008.00;4575239;28;20901;-75
2022/03/19 08:53:11;;;;;;;17.60;12.27;;;;;;;6.62;43.13;-24001.88;5096124;28;20181;-75
2022/03/19 08:55:37;;;;;;;17.97;11.60;;;;;;;7.20;43.09;-24018.06;5091452;28;20173;-74
2022/03/19 08:58:03;;;;;;;18.77;12.00;;;;;;;7.41;43.13;-24024.00;5091613;28;20187;-75
2022/03/19 09:00:28;;;;;;;17.90;11.73;;;;;;;7.94;41.58;-24038.88;5073354;28;20209;-76
2022/03/19 09:02:55;;;;;;;19.43;12.40;;;;;;;7.60;41.74;-24029.25;5091036;28;20242;-74
2022/03/19 09:05:21;;;;;;;20.73;12.17;;;;;;;8.24;42.25;-24047.09;5091246;28;20169;-74
2022/03/19 09:07:47;;;;;;;20.97;12.27;;;;;;;8.07;41.00;-24042.28;5091153;28;20165;-75
2022/03/19 09:10:12;;;;;;;19.27;11.80;;;;;;;8.11;40.87;-24043.56;5072987;28;20247;-76
2022/03/19 09:12:39;;;;;;;18.20;11.43;;;;;;;7.67;40.89;-24031.09;5091624;28;20264;-75
2022/03/19 09:15:07;;;;;;;15.07;10.03;;;;;;;6.45;41.57;-23996.91;5091552;28;20161;-75
2022/03/19 09:17:33;;;;;;;17.03;10.80;;;;;;;6.63;41.02;-24002.03;5090491;28;20207;-75
2022/03/19 09:19:58;;;;;;;17.97;10.80;;;;;;;6.74;41.02;-24005.00;5091063;28;20177;-75
2022/03/19 09:22:24;;;;;;;20.40;10.80;;;;;;;6.21;42.72;-23990.38;5073162;28;20188;-75
2022/03/19 09:24:49;;;;;;;18.40;10.97;;;;;;;6.77;43.37;-24006.00;5091220;28;20629;-75
2022/03/19 09:27:14;;;;;;;15.80;10.43;;;;;;;6.69;42.58;-24003.72;5072827;28;20169;-75
2022/03/19 09:29:42;;;;;;;18.63;10.10;;;;;;;6.97;42.15;-24011.66;5072820;28;20201;-76
2022/03/19 09:32:09;;;;;;;16.57;10.50;;;;;;;7.58;41.37;-24028.53;5090837;28;20184;-76
2022/03/19 09:34:35;;;;;;;16.70;10.30;;;;;;;7.17;41.43;-24017.06;5090944;28;20290;-76
2022/03/19 09:37:01;;;;;;;19.60;10.37;;;;;;;7.03;41.57;-24013.22;5091014;28;20177;-75
2022/03/19 09:39:27;;;;;;;17.87;10.53;;;;;;;6.52;41.94;-23998.91;5072971;28;20171;-75
2022/03/19 09:41:55;;;;;;;15.93;9.80;;;;;;;5.99;42.41;-23984.00;5091201;28;20162;-75
2022/03/19 09:44:25;;;;;;;16.37;10.10;;;;;;;6.02;42.37;-23984.97;5091026;28;20161;-74
2022/03/19 09:46:51;;;;;;;17.97;10.50;;;;;;;6.31;42.74;-23992.94;5090679;28;20177;-75
2022/03/19 09:49:16;;;;;;;16.17;10.00;;;;;;;7.00;40.83;-24012.38;5089743;28;20189;-75
2022/03/19 09:51:50;;;;;;;15.53;10.60;;;;;;;6.80;42.01;-24006.84;5090204;28;20201;-75
2022/03/19 09:54:15;;;;;;;15.10;9.27;;;;;;;6.93;41.62;-24010.41;5090187;28;20242;-75
2022/03/19 09:56:41;;;;;;;13.90;9.40;;;;;;;6.53;41.55;-23999.31;5072541;28;20188;-75
2022/03/19 09:59:06;;;;;;;14.03;9.60;;;;;;;6.29;42.02;-23992.50;5083900;28;20213;-75
2022/03/19 10:01:33;;;;;;;15.80;10.13;;;;;;;5.85;42.61;-23980.16;5086993;28;20640;-75
2022/03/19 10:04:07;;;;;;;14.93;10.17;;;;;;;6.00;43.57;-23984.28;5076230;28;20177;-75
2022/03/19 10:09:21;;;;;;;16.10;10.20;;;;;;;6.74;42.20;-24005.00;5083177;28;20232;-74
2022/03/19 10:11:49;;;;;;;14.97;10.23;;;;;;;6.73;42.11;-24004.72;5066956;28;20289;-75
2022/03/19 10:14:21;;;;;;;14.40;9.83;;;;;;;7.24;41.10;-24019.03;5060211;28;20541;-74
2022/03/19 10:16:49;;;;;;;17.20;10.07;;;;;;;8.18;40.03;-24045.41;5090487;28;20257;-74
2022/03/19 10:19:15;;;;;;;19.27;10.10;;;;;;;8.44;39.64;-24052.78;5077488;28;20273;-74
2022/03/19 10:21:41;;;;;;;17.13;10.80;;;;;;;8.72;37.37;-24060.56;5077354;28;20268;-74
2022/03/19 10:24:08;;;;;;;15.07;10.77;;;;;;;7.98;39.43;-24040.03;5065403;28;20558;-74
2022/03/19 10:26:37;;;;;;;14.33;9.87;;;;;;;7.79;40.04;-24034.63;5086126;28;20197;-73
2022/03/19 10:29:11;;;;;;;14.43;10.13;;;;;;;8.61;39.14;-24057.44;5076053;28;20231;-74
2022/03/19 10:31:46;;;;;;;17.00;11.83;;;;;;;9.10;39.18;-24071.31;5088430;28;20248;-75
2022/03/19 10:34:13;;;;;;;18.53;11.20;;;;;;;8.85;39.01;-24064.22;5080774;28;20180;-75
2022/03/19 10:36:44;;;;;;;18.47;11.67;;;;;;;9.11;38.30;-24071.59;5094596;28;20254;-75
2022/03/19 10:39:18;;;;;;;16.43;11.53;;;;;;;8.79;38.95;-24062.66;5088080;28;20232;-74
2022/03/19 10:41:44;;;;;;;23.40;14.00;;;;;;;8.57;40.02;-24056.31;5092132;28;20199;-74
2022/03/19 10:44:25;;;;;;;20.17;11.70;;;;;;;8.21;39.76;-24046.25;5087091;28;20186;-74
2022/03/19 10:46:54;;;;;;;15.17;11.00;;;;;;;8.35;39.10;-24050.22;5074293;28;20192;-75
2022/03/19 10:49:22;;;;;;;14.97;10.70;;;;;;;6.58;42.49;-24000.75;5068478;28;20620;-74
2022/03/19 10:51:50;;;;;;;17.27;11.00;;;;;;;6.90;41.65;-24009.53;5088501;28;20212;-74
2022/03/19 10:54:16;;;;;;;23.17;11.23;;;;;;;7.35;41.43;-24022.16;5081050;28;20201;-74
2022/03/19 10:56:43;;;;;;;15.47;10.00;;;;;;;7.69;41.06;-24031.66;5075449;28;20193;-74
2022/03/19 10:59:09;;;;;;;17.10;9.63;;;;;;;6.84;39.74;-24008.00;5086667;28;20209;-75
2022/03/19 11:01:36;;;;;;;13.43;9.70;;;;;;;7.14;39.69;-24016.22;5089239;28;20649;-74
2022/03/19 11:04:04;;;;;;;15.33;10.27;;;;;;;6.83;41.01;-24007.56;5079182;28;20186;-74
2022/03/19 11:06:34;;;;;;;15.93;10.70;;;;;;;7.05;40.84;-24013.81;5090178;28;20177;-74
2022/03/19 11:09:09;;;;;;;18.07;11.00;;;;;;;6.56;42.21;-24000.03;5061227;28;20189;-74
2022/03/19 11:12:17;;;;;;;21.07;10.77;;;;;;;6.80;42.21;-24006.72;5073361;28;20619;-75
2022/03/19 11:14:43;;;;;;;17.83;10.50;;;;;;;7.09;41.60;-24015.06;4976887;28;20188;-75
2022/03/19 11:17:27;;;;;;;17.50;10.17;;;;;;;7.30;41.75;-24020.88;5068356;28;20694;-75
2022/03/19 11:19:59;;;;;;;16.63;11.03;;;;;;;7.17;40.71;-24017.06;5068536;28;20199;-75
2022/03/19 11:22:26;;;;;;;16.97;10.60;;;;;;;8.20;40.73;-24046.09;5082865;28;20184;-75
2022/03/19 11:25:04;;;;;;;15.93;11.13;;;;;;;8.98;39.87;-24067.91;5065375;28;20556;-76